createdAt,value
2019-03-08T00:00:20.670Z,68.94
2019-03-08T00:02:53.099Z,68.87
2019-03-08T00:05:24.116Z,68.62
2019-03-08T00:07:54.906Z,69.15
2019-03-08T00:10:25.698Z,69.04
2019-03-08T00:12:56.574Z,69.16
2019-03-08T00:15:27.413Z,69.83
2019-03-08T00:17:58.294Z,71.32
2019-03-08T00:20:29.370Z,71.94
2019-03-08T00:23:00.201Z,72.54
2019-03-08T00:25:30.982Z,72.01
2019-03-08T00:28:01.857Z,72.05
2019-03-08T00:30:32.979Z,71.18
2019-03-08T00:33:03.778Z,70.60
2019-03-08T00:35:34.536Z,70.79
2019-03-08T00:38:05.414Z,71.61
2019-03-08T00:40:36.306Z,72.31
2019-03-08T00:43:07.191Z,72.45
2019-03-08T00:45:37.957Z,73.08
2019-03-08T00:48:08.698Z,73.12
2019-03-08T00:50:39.493Z,73.87
2019-03-08T00:53:10.129Z,74.34
2019-03-08T00:55:41.179Z,75.21
2019-03-08T00:58:12.321Z,75.51
2019-03-08T01:00:43.249Z,76.29
2019-03-08T01:03:14.128Z,76.80
2019-03-08T01:05:44.838Z,77.47
2019-03-08T01:08:16.051Z,76.92
2019-03-08T01:10:46.733Z,76.92
2019-03-08T01:13:17.521Z,76.23
2019-03-08T01:15:48.374Z,76.58
2019-03-08T01:18:19.237Z,76.37
2019-03-08T01:20:50.293Z,75.91
2019-03-08T01:23:21.157Z,76.10
2019-03-08T01:25:52.053Z,75.59
2019-03-08T01:28:22.926Z,75.72
2019-03-08T01:30:53.597Z,75.30
2019-03-08T01:33:24.370Z,75.03
2019-03-08T01:35:55.161Z,75.01
2019-03-08T01:38:25.936Z,75.12
2019-03-08T01:40:56.782Z,74.67
2019-03-08T01:43:27.708Z,74.28
2019-03-08T01:45:58.498Z,73.80
2019-03-08T01:48:29.278Z,73.62
2019-03-08T01:51:00.071Z,73.21
2019-03-08T01:53:30.638Z,72.46
2019-03-08T01:56:01.606Z,72.62
2019-03-08T01:58:32.381Z,72.43
2019-03-08T02:01:03.159Z,72.29
2019-03-08T02:03:34.008Z,72.41
2019-03-08T02:06:04.928Z,72.02
2019-03-08T02:08:36.799Z,71.54
2019-03-08T02:11:07.627Z,71.89
2019-03-08T02:13:38.513Z,71.86
2019-03-08T02:16:10.322Z,71.70
2019-03-08T02:18:41.162Z,71.52
2019-03-08T02:21:12.275Z,71.37
2019-03-08T02:23:43.134Z,71.67
2019-03-08T02:26:14.013Z,72.50
2019-03-08T02:28:44.705Z,72.91
2019-03-08T02:31:15.541Z,73.11
2019-03-08T02:33:46.446Z,73.03
2019-03-08T02:36:17.276Z,73.65
2019-03-08T02:38:48.060Z,73.81
2019-03-08T02:41:19.343Z,73.74
2019-03-08T02:43:50.034Z,73.69
2019-03-08T02:46:20.928Z,73.92
2019-03-08T02:48:51.766Z,74.14
2019-03-08T02:51:22.484Z,73.97
2019-03-08T02:53:53.133Z,74.29
2019-03-08T02:56:23.941Z,74.46
2019-03-08T02:58:54.702Z,74.45
2019-03-08T03:01:25.485Z,74.55
2019-03-08T03:03:56.274Z,74.45
2019-03-08T03:06:27.355Z,74.36
2019-03-08T03:08:58.154Z,74.53
2019-03-08T03:11:28.958Z,74.42
2019-03-08T03:13:59.731Z,74.36
2019-03-08T03:16:30.513Z,74.15
2019-03-08T03:19:01.302Z,74.57
2019-03-08T03:21:33.100Z,74.59
2019-03-08T03:24:04.198Z,74.73
2019-03-08T03:26:35.220Z,74.68
2019-03-08T03:29:06.006Z,74.55
2019-03-08T03:31:36.786Z,74.38
2019-03-08T03:34:07.473Z,74.41
2019-03-08T03:36:38.434Z,74.79
2019-03-08T03:39:09.109Z,74.68
2019-03-08T03:41:40.184Z,74.55
2019-03-08T03:44:11.133Z,74.81
2019-03-08T03:46:43.082Z,74.80
2019-03-08T03:49:14.129Z,75.05
2019-03-08T03:51:45.712Z,75.20
2019-03-08T03:54:17.501Z,75.66
2019-03-08T03:56:48.291Z,76.06
2019-03-08T03:59:19.186Z,76.51
2019-03-08T04:01:51.106Z,76.49
2019-03-08T04:04:21.905Z,76.79
2019-03-08T04:06:52.964Z,76.91
2019-03-08T04:09:23.752Z,77.05
2019-03-08T04:11:54.633Z,77.25
2019-03-08T04:14:25.578Z,77.21
2019-03-08T04:16:56.346Z,77.40
2019-03-08T04:19:27.030Z,77.12
2019-03-08T04:21:58.263Z,77.01
2019-03-08T04:24:29.084Z,76.46
2019-03-08T04:27:00.461Z,76.45
2019-03-08T04:29:31.299Z,75.64
2019-03-08T04:32:02.069Z,76.01
2019-03-08T04:34:32.836Z,76.63
2019-03-08T04:37:03.900Z,77.03
2019-03-08T04:39:35.740Z,77.27
2019-03-08T04:42:06.630Z,77.90
2019-03-08T04:44:37.405Z,78.05
2019-03-08T04:47:08.190Z,77.76
2019-03-08T04:49:38.908Z,78.05
2019-03-08T04:52:09.948Z,78.00
2019-03-08T04:54:40.734Z,78.21
2019-03-08T04:57:11.541Z,78.42
2019-03-08T04:59:42.561Z,78.02
2019-03-08T05:02:13.269Z,77.86
2019-03-08T05:04:44.465Z,77.66
2019-03-08T05:07:15.169Z,77.43
2019-03-08T05:09:46.027Z,77.66
2019-03-08T05:12:16.905Z,77.85
2019-03-08T05:14:47.683Z,77.55
2019-03-08T05:17:18.656Z,77.62
2019-03-08T05:19:49.352Z,77.32
2019-03-08T05:22:20.133Z,77.24
2019-03-08T05:24:50.819Z,77.01
2019-03-08T05:27:21.618Z,77.37
2019-03-08T05:29:52.593Z,77.19
2019-03-08T05:32:23.561Z,77.30
2019-03-08T05:34:54.373Z,76.89
2019-03-08T05:37:25.271Z,76.80
2019-03-08T05:39:56.147Z,76.45
2019-03-08T05:42:27.189Z,76.23
2019-03-08T05:44:57.918Z,76.13
2019-03-08T05:47:28.706Z,76.09
2019-03-08T05:49:59.458Z,76.07
2019-03-08T05:52:30.225Z,75.93
2019-03-08T05:55:01.425Z,75.79
2019-03-08T05:57:32.308Z,75.65
2019-03-08T06:00:03.213Z,75.40
2019-03-08T06:02:34.182Z,75.09
2019-03-08T06:05:05.529Z,75.17
2019-03-08T06:07:36.305Z,75.37
2019-03-08T06:10:27.862Z,75.05
2019-03-08T06:12:59.237Z,74.70
2019-03-08T06:15:30.043Z,74.61
2019-03-08T06:18:01.266Z,74.62
2019-03-08T06:20:32.140Z,74.42
2019-03-08T06:23:04.517Z,74.55
2019-03-08T06:25:35.582Z,74.42
2019-03-08T06:28:06.463Z,74.16
2019-03-08T06:30:37.445Z,73.85
2019-03-08T06:33:08.227Z,73.70
2019-03-08T06:35:38.683Z,73.73
2019-03-08T06:38:09.493Z,72.83
2019-03-08T06:40:40.258Z,73.01
2019-03-08T06:43:11.234Z,72.34
2019-03-08T06:45:42.126Z,72.77
2019-03-08T06:48:12.918Z,72.18
2019-03-08T06:50:43.732Z,72.15
2019-03-08T06:53:14.715Z,72.00
2019-03-08T06:55:45.498Z,71.40
2019-03-08T06:58:22.712Z,71.23
2019-03-08T07:01:12.391Z,70.99
2019-03-08T07:03:43.432Z,70.74
2019-03-08T07:06:14.310Z,71.21
2019-03-08T07:08:45.106Z,71.35
2019-03-08T07:11:15.888Z,71.10
2019-03-08T07:13:46.653Z,70.86
2019-03-08T07:16:17.554Z,70.99
2019-03-08T07:18:48.479Z,70.49
2019-03-08T07:21:29.575Z,70.67
2019-03-08T07:24:12.434Z,70.66
2019-03-08T07:27:00.877Z,70.88
2019-03-08T07:29:59.944Z,70.81
2019-03-08T07:32:54.774Z,70.79
2019-03-08T07:35:50.811Z,70.66
2019-03-08T07:38:55.934Z,70.83
2019-03-08T07:42:00.718Z,70.51
2019-03-08T07:44:56.026Z,70.64
2019-03-08T07:47:48.838Z,70.45
2019-03-08T07:50:53.934Z,70.55
2019-03-08T07:53:31.059Z,70.55
2019-03-08T07:56:11.217Z,70.50
2019-03-08T07:59:03.627Z,70.51
2019-03-08T08:01:41.794Z,70.60
2019-03-08T08:04:40.794Z,70.43
2019-03-08T08:07:21.358Z,70.40
2019-03-08T08:10:05.823Z,70.40
2019-03-08T08:13:04.159Z,70.75
2019-03-08T08:15:52.717Z,70.05
2019-03-08T08:18:45.838Z,70.28
2019-03-08T08:21:27.429Z,70.05
2019-03-08T08:24:26.258Z,69.88
2019-03-08T08:27:15.885Z,69.76
2019-03-08T08:30:20.970Z,69.69
2019-03-08T08:33:13.346Z,69.58
2019-03-08T08:35:59.836Z,69.28
2019-03-08T08:38:52.602Z,69.14
2019-03-08T08:41:32.963Z,69.39
2019-03-08T08:44:25.763Z,69.38
2019-03-08T08:47:21.377Z,68.88
2019-03-08T08:50:03.090Z,69.28
2019-03-08T08:52:49.825Z,69.43
2019-03-08T08:55:38.330Z,69.18
2019-03-08T08:58:28.374Z,68.51
2019-03-08T09:01:16.535Z,68.23
2019-03-08T09:04:06.403Z,68.17
2019-03-08T09:06:56.046Z,67.49
2019-03-08T09:09:56.589Z,67.72
2019-03-08T09:12:41.390Z,67.86
2019-03-08T09:15:25.451Z,67.49
2019-03-08T09:18:06.210Z,67.61
2019-03-08T09:20:55.669Z,67.76
2019-03-08T09:23:45.405Z,67.65
2019-03-08T09:26:47.558Z,67.34
2019-03-08T09:29:41.509Z,67.63
2019-03-08T09:32:24.467Z,67.35
2019-03-08T09:35:05.375Z,67.11
2019-03-08T09:37:56.961Z,66.79
2019-03-08T09:41:05.095Z,66.91
2019-03-08T09:43:53.725Z,65.92
2019-03-08T09:46:42.055Z,64.71
2019-03-08T09:49:20.997Z,63.91
2019-03-08T09:52:13.587Z,61.89
2019-03-08T09:55:06.372Z,60.74
2019-03-08T09:57:56.923Z,60.39
2019-03-08T10:00:51.503Z,60.89
2019-03-08T10:03:46.423Z,59.36
2019-03-08T10:06:45.790Z,61.09
2019-03-08T10:09:30.862Z,60.34
2019-03-08T10:12:20.079Z,58.64
2019-03-08T10:15:08.420Z,57.89
2019-03-08T10:18:00.921Z,56.79
2019-03-08T10:20:46.447Z,56.99
2019-03-08T10:23:38.808Z,57.04
2019-03-08T10:26:37.793Z,57.21
2019-03-08T10:29:26.040Z,58.21
2019-03-08T10:32:36.824Z,57.06
2019-03-08T10:35:23.925Z,56.68
2019-03-08T10:38:05.233Z,56.78
2019-03-08T10:41:12.906Z,56.44
2019-03-08T10:44:15.522Z,57.44
2019-03-08T10:47:03.759Z,58.07
2019-03-08T10:49:55.819Z,57.99
2019-03-08T10:52:53.770Z,56.11
2019-03-08T10:55:51.995Z,53.72
2019-03-08T10:58:41.559Z,54.97
2019-03-08T11:01:34.130Z,56.07
2019-03-08T11:04:42.095Z,53.78
2019-03-08T11:07:31.155Z,54.54
2019-03-08T11:10:36.011Z,53.25
2019-03-08T11:13:28.510Z,51.71
2019-03-08T11:16:17.031Z,50.26
2019-03-08T11:19:18.743Z,49.63
2019-03-08T11:22:07.405Z,51.53
2019-03-08T11:24:55.983Z,51.22
2019-03-08T11:27:48.511Z,50.54
2019-03-08T11:30:41.037Z,52.50
2019-03-08T11:33:46.047Z,51.72
2019-03-08T11:36:27.412Z,51.79
2019-03-08T11:39:21.236Z,51.48
2019-03-08T11:42:00.903Z,52.65
2019-03-08T11:44:57.819Z,53.19
2019-03-08T11:47:42.822Z,53.03
2019-03-08T11:50:26.635Z,52.58
2019-03-08T11:53:08.677Z,51.29
2019-03-08T11:55:44.377Z,50.30
2019-03-08T11:58:34.227Z,50.58
2019-03-08T12:01:33.887Z,49.67
2019-03-08T12:04:33.021Z,49.27
2019-03-08T12:07:25.424Z,47.25
2019-03-08T12:10:24.027Z,46.08
2019-03-08T12:13:01.908Z,45.62
2019-03-08T12:16:03.877Z,45.46
2019-03-08T12:18:56.341Z,45.94
2019-03-08T12:21:41.285Z,46.53
2019-03-08T12:24:42.871Z,46.09
2019-03-08T12:27:23.099Z,47.72
2019-03-08T12:30:04.414Z,45.85
2019-03-08T12:32:59.032Z,46.21
2019-03-08T12:35:52.792Z,45.12
2019-03-08T12:38:42.554Z,47.83
2019-03-08T12:41:35.570Z,46.87
2019-03-08T12:44:23.951Z,48.73
2019-03-08T12:47:22.819Z,46.27
2019-03-08T12:50:00.631Z,47.51
2019-03-08T12:52:48.315Z,47.67
2019-03-08T12:55:42.132Z,47.14
2019-03-08T12:58:44.575Z,48.05
2019-03-08T13:01:25.071Z,45.59
2019-03-08T13:04:24.478Z,45.45
2019-03-08T13:07:12.305Z,46.46
2019-03-08T13:09:48.407Z,47.16
2019-03-08T13:12:19.478Z,45.22
2019-03-08T13:14:50.430Z,45.55
2019-03-08T13:17:21.939Z,44.86
2019-03-08T13:19:52.743Z,46.19
2019-03-08T13:22:23.539Z,44.29
2019-03-08T13:24:54.352Z,44.82
2019-03-08T13:27:25.040Z,44.40
2019-03-08T13:29:56.163Z,43.53
2019-03-08T13:32:27.017Z,43.96
2019-03-08T13:34:57.688Z,45.33
2019-03-08T13:37:28.486Z,43.89
2019-03-08T13:39:59.167Z,44.20
2019-03-08T13:42:30.127Z,44.76
2019-03-08T13:45:00.826Z,43.96
2019-03-08T13:47:31.587Z,44.30
2019-03-08T13:50:03.348Z,44.42
2019-03-08T13:52:34.252Z,43.71
2019-03-08T13:55:05.539Z,42.79
2019-03-08T13:57:36.263Z,44.30
2019-03-08T14:00:08.875Z,41.88
2019-03-08T14:02:39.612Z,41.82
2019-03-08T14:05:10.937Z,39.96
2019-03-08T14:07:41.909Z,39.39
2019-03-08T14:10:14.552Z,42.55
2019-03-08T14:12:45.471Z,41.54
2019-03-08T14:15:16.421Z,41.28
2019-03-08T14:17:47.308Z,42.49
2019-03-08T14:20:19.239Z,42.69
2019-03-08T14:22:50.119Z,41.04
2019-03-08T14:25:21.000Z,40.99
2019-03-08T14:27:51.815Z,41.75
2019-03-08T14:30:24.296Z,41.56
2019-03-08T14:32:58.018Z,40.88
2019-03-08T14:35:29.652Z,41.12
2019-03-08T14:38:00.121Z,42.21
2019-03-08T14:40:48.844Z,42.20
2019-03-08T14:43:28.224Z,42.16
2019-03-08T14:46:03.857Z,41.28
2019-03-08T14:48:35.679Z,42.48
2019-03-08T14:51:09.432Z,41.13
2019-03-08T14:53:39.167Z,40.24
2019-03-08T14:56:10.038Z,40.02
2019-03-08T14:58:41.074Z,40.85
2019-03-08T15:01:12.090Z,40.12
2019-03-08T15:03:43.849Z,38.33
2019-03-08T15:06:15.299Z,39.62
2019-03-08T15:08:46.070Z,39.50
2019-03-08T15:11:16.741Z,39.77
2019-03-08T15:13:47.542Z,39.51
2019-03-08T15:16:18.215Z,38.47
2019-03-08T15:18:49.045Z,37.47
2019-03-08T15:21:19.875Z,38.26
2019-03-08T15:23:54.129Z,39.19
2019-03-08T15:26:23.287Z,39.15
2019-03-08T15:28:54.039Z,38.25
2019-03-08T15:31:24.832Z,39.38
2019-03-08T15:33:55.667Z,39.27
2019-03-08T15:36:26.398Z,39.38
2019-03-08T15:38:58.765Z,38.96
2019-03-08T15:41:29.644Z,39.39
2019-03-08T15:44:00.594Z,40.37
2019-03-08T15:46:31.516Z,39.49
2019-03-08T15:49:03.427Z,39.50
2019-03-08T15:51:34.467Z,40.45
2019-03-08T15:54:05.579Z,40.28
2019-03-08T15:56:36.563Z,41.26
2019-03-08T15:59:07.798Z,41.80
2019-03-08T16:01:38.643Z,40.60
2019-03-08T16:04:12.086Z,40.53
2019-03-08T16:06:43.847Z,40.38
2019-03-08T16:09:16.905Z,41.90
2019-03-08T16:11:47.660Z,42.96
2019-03-08T16:14:18.431Z,42.70
2019-03-08T16:16:49.227Z,43.20
2019-03-08T16:19:20.879Z,42.75
2019-03-08T16:21:52.441Z,41.34
2019-03-08T16:24:23.115Z,42.88
2019-03-08T16:26:54.081Z,43.33
2019-03-08T16:29:25.191Z,42.48
2019-03-08T16:32:18.658Z,43.76
2019-03-08T16:34:49.329Z,42.78
2019-03-08T16:37:30.921Z,42.52
2019-03-08T16:40:20.421Z,44.43
2019-03-08T16:43:25.384Z,43.22
2019-03-08T16:46:23.875Z,44.84
2019-03-08T16:49:14.770Z,44.20
2019-03-08T16:52:13.520Z,48.02
2019-03-08T16:55:01.792Z,46.80
2019-03-08T16:57:50.587Z,45.28
2019-03-08T17:00:41.139Z,45.04
2019-03-08T17:03:22.260Z,45.37
2019-03-08T17:06:13.891Z,46.01
2019-03-08T17:09:06.578Z,46.27
2019-03-08T17:11:55.235Z,46.15
2019-03-08T17:14:43.695Z,46.65
2019-03-08T17:17:32.131Z,48.14
2019-03-08T17:20:16.800Z,48.83
2019-03-08T17:23:01.209Z,48.38
2019-03-08T17:25:37.215Z,49.57
2019-03-08T17:28:19.971Z,49.02
2019-03-08T17:30:58.390Z,49.50
2019-03-08T17:33:51.687Z,51.72
2019-03-08T17:36:32.579Z,53.44
2019-03-08T17:39:11.256Z,54.81
2019-03-08T17:42:04.027Z,55.19
2019-03-08T17:44:52.595Z,55.20
2019-03-08T17:47:36.136Z,55.87
2019-03-08T17:50:26.539Z,56.61
2019-03-08T17:53:25.348Z,56.95
2019-03-08T17:56:27.408Z,57.29
2019-03-08T17:59:15.532Z,56.16
2019-03-08T18:02:03.958Z,56.42
2019-03-08T18:04:52.514Z,56.85
2019-03-08T18:07:35.495Z,56.30
2019-03-08T18:10:31.301Z,55.87
2019-03-08T18:13:20.966Z,55.40
2019-03-08T18:16:28.960Z,56.26
2019-03-08T18:19:27.752Z,56.38
2019-03-08T18:22:20.536Z,53.90
2019-03-08T18:25:10.194Z,55.26
2019-03-08T18:27:59.451Z,56.12
2019-03-08T18:30:44.823Z,55.63
2019-03-08T18:33:40.266Z,55.08
2019-03-08T18:36:26.129Z,55.85
2019-03-08T18:39:15.704Z,56.13
2019-03-08T18:41:55.857Z,56.58
2019-03-08T18:44:48.858Z,56.94
2019-03-08T18:47:38.606Z,57.43
2019-03-08T18:50:32.462Z,57.64
2019-03-08T18:53:34.115Z,57.85
2019-03-08T18:56:22.474Z,58.04
2019-03-08T18:59:32.970Z,57.80
2019-03-08T19:02:24.770Z,58.16
2019-03-08T19:05:23.514Z,58.33
2019-03-08T19:08:11.617Z,58.40
2019-03-08T19:11:10.750Z,58.21
2019-03-08T19:14:00.399Z,58.32
2019-03-08T19:17:08.695Z,58.44
2019-03-08T19:19:57.152Z,58.28
2019-03-08T19:22:36.614Z,58.54
2019-03-08T19:25:35.883Z,58.70
2019-03-08T19:28:30.685Z,58.67
2019-03-08T19:31:23.168Z,58.84
2019-03-08T19:34:10.342Z,58.65
2019-03-08T19:36:59.950Z,58.83
2019-03-08T19:39:48.515Z,58.98
2019-03-08T19:42:27.908Z,58.83
2019-03-08T19:45:16.403Z,58.82
2019-03-08T19:48:04.794Z,59.02
2019-03-08T19:51:12.510Z,59.17
2019-03-08T19:54:04.396Z,59.11
2019-03-08T19:57:03.126Z,59.39
2019-03-08T19:59:52.976Z,59.63
2019-03-08T20:02:46.578Z,59.82
2019-03-08T20:05:34.982Z,59.95
2019-03-08T20:08:30.339Z,60.38
2019-03-08T20:11:32.190Z,60.09
2019-03-08T20:14:20.446Z,60.57
2019-03-08T20:17:12.981Z,60.08
2019-03-08T20:19:51.304Z,60.41
2019-03-08T20:22:35.177Z,60.45
2019-03-08T20:25:13.610Z,60.45
2019-03-08T20:27:50.572Z,60.09
2019-03-08T20:30:46.561Z,60.27
2019-03-08T20:33:28.182Z,60.41
2019-03-08T20:36:07.800Z,60.53
2019-03-08T20:39:03.932Z,60.31
2019-03-08T20:41:55.242Z,60.26
2019-03-08T20:44:31.616Z,59.97
2019-03-08T20:47:11.736Z,60.10
2019-03-08T20:49:42.562Z,60.26
2019-03-08T20:52:13.383Z,60.25
2019-03-08T20:54:44.153Z,60.11
2019-03-08T20:57:16.991Z,60.08
2019-03-08T20:59:47.918Z,60.24
2019-03-08T21:02:18.616Z,60.72
2019-03-08T21:04:49.815Z,60.50
2019-03-08T21:07:20.671Z,60.62
2019-03-08T21:09:51.546Z,60.62
2019-03-08T21:12:22.242Z,61.15
2019-03-08T21:14:54.246Z,61.60
2019-03-08T21:17:25.034Z,61.04
2019-03-08T21:19:55.808Z,60.73
2019-03-08T21:22:26.441Z,60.84
2019-03-08T21:24:57.299Z,60.62
2019-03-08T21:27:28.455Z,60.55
2019-03-08T21:29:59.650Z,60.55
2019-03-08T21:32:30.293Z,60.59
2019-03-08T21:35:01.198Z,60.37
2019-03-08T21:37:32.468Z,60.46
2019-03-08T21:40:03.717Z,60.52
2019-03-08T21:42:36.875Z,60.47
2019-03-08T21:45:09.078Z,60.68
2019-03-08T21:47:39.918Z,60.78
2019-03-08T21:50:13.325Z,60.84
2019-03-08T21:52:44.246Z,60.89
2019-03-08T21:55:15.503Z,61.01
2019-03-08T21:57:46.334Z,61.25
2019-03-08T22:00:18.744Z,61.40
2019-03-08T22:02:49.610Z,61.75
2019-03-08T22:05:24.122Z,61.78
2019-03-08T22:07:55.103Z,61.66
2019-03-08T22:10:47.865Z,62.05
2019-03-08T22:13:18.666Z,61.85
2019-03-08T22:15:49.911Z,62.21
2019-03-08T22:18:20.670Z,62.05
2019-03-08T22:20:51.550Z,62.15
2019-03-08T22:23:22.342Z,62.30
2019-03-08T22:25:53.105Z,62.21
2019-03-08T22:28:24.090Z,62.33
2019-03-08T22:30:54.855Z,62.32
2019-03-08T22:33:25.549Z,62.40
2019-03-08T22:35:56.621Z,62.61
2019-03-08T22:38:27.253Z,62.73
2019-03-08T22:40:58.210Z,62.68
2019-03-08T22:43:29.130Z,62.93
2019-03-08T22:45:59.810Z,62.93
2019-03-08T22:48:30.746Z,63.17
2019-03-08T22:51:01.619Z,63.20
2019-03-08T22:53:32.276Z,63.72
2019-03-08T22:56:03.279Z,63.82
2019-03-08T22:58:33.942Z,63.65
2019-03-08T23:01:09.962Z,63.72
2019-03-08T23:03:41.147Z,64.06
2019-03-08T23:06:11.845Z,64.03
2019-03-08T23:08:42.710Z,63.90
2019-03-08T23:11:13.530Z,63.90
2019-03-08T23:13:44.617Z,64.01
2019-03-08T23:16:15.430Z,64.24
2019-03-08T23:18:46.379Z,63.84
2019-03-08T23:21:16.966Z,64.25
2019-03-08T23:23:47.645Z,64.15
2019-03-08T23:26:18.534Z,63.86
2019-03-08T23:28:52.880Z,63.91
2019-03-08T23:31:36.605Z,63.95
2019-03-08T23:34:07.253Z,64.27
2019-03-08T23:36:37.857Z,64.56
2019-03-08T23:39:09.623Z,64.89
2019-03-08T23:41:41.878Z,65.17
2019-03-08T23:44:12.954Z,65.24
2019-03-08T23:46:43.661Z,65.14
2019-03-08T23:49:14.443Z,65.09
2019-03-08T23:51:45.428Z,64.96
2019-03-08T23:54:16.487Z,64.79
2019-03-08T23:56:47.164Z,64.68
2019-03-08T23:59:17.877Z,64.83
